Wichita, KS (67212)

4:51 PM CDT on August 31, 2015 (GMT -0500)
WestLink 19th | | Change Station
CLOSE
Current Station
Personal Weather Station
Location: Wichita, KS
Elevation: 1354 ft
Nearby Weather Stations

Elev 1354 ft 37.69 °N, 97.47 °W | Updated 12 seconds ago

Clear
Clear
92.6 °F
Feels Like 97 °F
N
1.2
Wind Variable Wind from South
Gusts 3.5 mph

Today
High -- | Low -- °F
--% Chance of Precip.
Yesterday
High -- | Low -- °F
Precip. -- in
6:58 AM 8:00 PM
Waning Gibbous, 93% visible
Pressure 29.86 in
Visibility 10.0 miles
Clouds Clear
Heat Index 97 °F
Dew Point 68 °F
Humidity 44%
Rainfall 0.00 in
Snow Depth Not available.
UV 0.0 out of 12
Pollen 11.10 out of 12
Air Quality Not available.
Flu Activity Not available.
METAR KICT 312053Z 16014KT 10SM CLR 34/18 A2991 RMK AO2 SLP112 T03390178 58013
Pressure 29.86 in
Visibility 10.0 miles
Clouds Clear
Heat Index 97 °F
Dew Point 68 °F
Humidity 44%
Rainfall 0.00 in
Snow Depth Not available.
UV 0.0 out of 12
Pollen 11.10 out of 12
Air Quality Not available.
Flu Activity Not available.
METAR KICT 312053Z 16014KT 10SM CLR 34/18 A2991 RMK AO2 SLP112 T03390178 58013

10-Day Weather Forecast

×

Almanac

Astronomy

Aug. 31, 2015 Rise Set
Actual Time
Civil Twilight
Nautical Twilight
Astronomical Twilight
Moon
Length of Visible Light
Length of Day
Tomorrow will be .
, % of the Moon is Illuminated

Today's Extremes

State Highs State Lows

Community

WunderPhotos

Upload Photos

1,851,377 photos uploaded!

WunderBlogs® & News

Nearby

Air Quality

  Air Quality AQ Index Pollutant
Not available.

Snow Depth

Station Depth Elevation

Earthquake Activity

City Distance Mag. Time & Date
Minimum magnitude displayed is 2.5.

Coastal Water Temperatures

Place Temperature

Stations

Nearby Weather Stations

Station Location Temp. Windchill Dew Point Humidity Wind Precip. Elev Updated Type